FIN7HM ESSA-EFHK
Flight info
| Callsign | FIN7HM |
|---|---|
| Flight time | 0h 44m |
| Altitude | 29000 |
| Route | TOVRI N851 RIKUM DCT RIRIP Y364 LAKUT |
| Aircraft | A320/M-SDE3FGHIRWY/LB1 |
Departure
| Time | 2026-05-04 15:56 |
|---|---|
| Airport | Stockholm-Arlanda Airport (ESSA) |
Arrival
| Time | 2026-05-04 16:41 |
|---|---|
| Airport | Helsinki Vantaa Airport (EFHK) |
| Time | Latitude | Longitude | Altitude | Speed | Heading |
|---|---|---|---|---|---|
| 2026-05-04 15:24 | 59.64395 | 17.92747 | 138 ft | 0 kts | 45° |
| 2026-05-04 15:32 | 59.64395 | 17.92746 | 138 ft | 0 kts | 45° |
| 2026-05-04 15:41 | 59.64394 | 17.92746 | 137 ft | 0 kts | 45° |
| 2026-05-04 15:45 | 59.64393 | 17.92743 | 137 ft | 2 kts | 45° |
| 2026-05-04 15:45 | 59.64377 | 17.92711 | 137 ft | 3 kts | 46° |
| 2026-05-04 15:45 | 59.64361 | 17.92677 | 137 ft | 3 kts | 46° |
| 2026-05-04 15:46 | 59.64350 | 17.92654 | 137 ft | 3 kts | 46° |
| 2026-05-04 15:46 | 59.64328 | 17.92608 | 137 ft | 3 kts | 44° |
| 2026-05-04 15:46 | 59.64311 | 17.92577 | 137 ft | 3 kts | 32° |
| 2026-05-04 15:46 | 59.64290 | 17.92560 | 138 ft | 3 kts | 360° |
| 2026-05-04 15:47 | 59.64270 | 17.92571 | 137 ft | 3 kts | 310° |
| 2026-05-04 15:47 | 59.64263 | 17.92590 | 137 ft | 1 kts | 297° |
| 2026-05-04 15:47 | 59.64263 | 17.92592 | 137 ft | 3 kts | 297° |
| 2026-05-04 15:49 | 59.64278 | 17.92534 | 137 ft | 8 kts | 296° |
| 2026-05-04 15:50 | 59.64308 | 17.92403 | 137 ft | 12 kts | 294° |
| 2026-05-04 15:50 | 59.64347 | 17.92250 | 138 ft | 13 kts | 299° |
| 2026-05-04 15:50 | 59.64396 | 17.92080 | 138 ft | 15 kts | 299° |
| 2026-05-04 15:50 | 59.64478 | 17.91954 | 138 ft | 16 kts | 358° |
| 2026-05-04 15:51 | 59.64583 | 17.91994 | 138 ft | 15 kts | 12° |
| 2026-05-04 15:51 | 59.64680 | 17.92030 | 138 ft | 15 kts | 10° |
| 2026-05-04 15:51 | 59.64778 | 17.92065 | 138 ft | 14 kts | 10° |
| 2026-05-04 15:51 | 59.64874 | 17.92099 | 138 ft | 18 kts | 11° |
| 2026-05-04 15:52 | 59.65009 | 17.92148 | 138 ft | 19 kts | 9° |
| 2026-05-04 15:52 | 59.65164 | 17.92204 | 138 ft | 24 kts | 11° |
| 2026-05-04 15:52 | 59.65321 | 17.92261 | 138 ft | 22 kts | 10° |
| 2026-05-04 15:52 | 59.65466 | 17.92315 | 138 ft | 20 kts | 10° |
| 2026-05-04 15:53 | 59.65598 | 17.92362 | 138 ft | 18 kts | 10° |
| 2026-05-04 15:53 | 59.65722 | 17.92408 | 138 ft | 21 kts | 10° |
| 2026-05-04 15:53 | 59.65881 | 17.92463 | 138 ft | 23 kts | 10° |
| 2026-05-04 15:53 | 59.66029 | 17.92516 | 138 ft | 21 kts | 11° |
| 2026-05-04 15:54 | 59.66166 | 17.92568 | 138 ft | 19 kts | 11° |
| 2026-05-04 15:54 | 59.66291 | 17.92614 | 138 ft | 18 kts | 10° |
| 2026-05-04 15:54 | 59.66407 | 17.92653 | 138 ft | 18 kts | 8° |
| 2026-05-04 15:54 | 59.66552 | 17.92596 | 138 ft | 21 kts | 340° |
| 2026-05-04 15:55 | 59.66610 | 17.92422 | 141 ft | 16 kts | 250° |
| 2026-05-04 15:55 | 59.66513 | 17.92331 | 142 ft | 18 kts | 191° |
| 2026-05-04 15:55 | 59.66236 | 17.92230 | 144 ft | 73 kts | 191° |
| 2026-05-04 15:55 | 59.65532 | 17.91972 | 144 ft | 131 kts | 191° |
| 2026-05-04 15:56 | 59.64511 | 17.91535 | 340 ft | 159 kts | 196° |
| 2026-05-04 15:56 | 59.63403 | 17.91123 | 1052 ft | 162 kts | 195° |
| 2026-05-04 15:56 | 59.62276 | 17.90744 | 1673 ft | 171 kts | 193° |
| 2026-05-04 15:56 | 59.61007 | 17.90511 | 2022 ft | 195 kts | 190° |
| 2026-05-04 15:57 | 59.59581 | 17.90337 | 2531 ft | 211 kts | 189° |
| 2026-05-04 15:57 | 59.58113 | 17.90206 | 3356 ft | 213 kts | 185° |
| 2026-05-04 15:57 | 59.56633 | 17.90883 | 4185 ft | 227 kts | 159° |
| 2026-05-04 15:57 | 59.55356 | 17.92877 | 4810 ft | 242 kts | 139° |
| 2026-05-04 15:58 | 59.54334 | 17.95524 | 4965 ft | 248 kts | 115° |
| 2026-05-04 15:58 | 59.54117 | 17.98903 | 5330 ft | 256 kts | 79° |
| 2026-05-04 15:58 | 59.54847 | 18.02191 | 5784 ft | 274 kts | 46° |
| 2026-05-04 15:58 | 59.56171 | 18.05053 | 6297 ft | 291 kts | 49° |
| 2026-05-04 15:59 | 59.57326 | 18.08418 | 7088 ft | 300 kts | 57° |
| 2026-05-04 15:59 | 59.58352 | 18.12058 | 7904 ft | 307 kts | 59° |
| 2026-05-04 15:59 | 59.59349 | 18.15769 | 8730 ft | 312 kts | 59° |
| 2026-05-04 15:59 | 59.60393 | 18.19566 | 9563 ft | 318 kts | 58° |
| 2026-05-04 16:00 | 59.61506 | 18.23439 | 10044 ft | 335 kts | 57° |
| 2026-05-04 16:00 | 59.62732 | 18.27538 | 10358 ft | 356 kts | 56° |
| 2026-05-04 16:00 | 59.64034 | 18.31781 | 10977 ft | 365 kts | 56° |
| 2026-05-04 16:00 | 59.65372 | 18.36096 | 11685 ft | 371 kts | 56° |
| 2026-05-04 16:01 | 59.66735 | 18.40484 | 12409 ft | 377 kts | 56° |
| 2026-05-04 16:01 | 59.68117 | 18.44937 | 13116 ft | 383 kts | 56° |
| 2026-05-04 16:01 | 59.69517 | 18.49464 | 13776 ft | 388 kts | 56° |
| 2026-05-04 16:01 | 59.70934 | 18.54054 | 14406 ft | 393 kts | 56° |
| 2026-05-04 16:02 | 59.72367 | 18.58700 | 15045 ft | 397 kts | 56° |
| 2026-05-04 16:02 | 59.73813 | 18.63406 | 15727 ft | 402 kts | 56° |
| 2026-05-04 16:02 | 59.76739 | 18.73005 | 16947 ft | 411 kts | 57° |
| 2026-05-04 16:03 | 59.78221 | 18.77889 | 17484 ft | 415 kts | 57° |
| 2026-05-04 16:03 | 59.79712 | 18.82814 | 17626 ft | 416 kts | 57° |
| 2026-05-04 16:03 | 59.81206 | 18.87748 | 17649 ft | 417 kts | 57° |
| 2026-05-04 16:03 | 59.82700 | 18.92680 | 17647 ft | 416 kts | 57° |
| 2026-05-04 16:04 | 59.84194 | 18.97616 | 17648 ft | 416 kts | 57° |
| 2026-05-04 16:04 | 59.87168 | 19.07505 | 17653 ft | 417 kts | 57° |
| 2026-05-04 16:04 | 59.88651 | 19.12461 | 17654 ft | 417 kts | 57° |
| 2026-05-04 16:05 | 59.90132 | 19.17422 | 17652 ft | 417 kts | 57° |
| 2026-05-04 16:05 | 59.91595 | 19.22335 | 17694 ft | 418 kts | 57° |
| 2026-05-04 16:05 | 59.94587 | 19.32385 | 18922 ft | 425 kts | 58° |
| 2026-05-04 16:06 | 59.96066 | 19.37515 | 19485 ft | 429 kts | 62° |
| 2026-05-04 16:06 | 59.98553 | 19.52778 | 20964 ft | 438 kts | 77° |
| 2026-05-04 16:07 | 59.99505 | 19.60653 | 21700 ft | 443 kts | 77° |
| 2026-05-04 16:07 | 60.01701 | 19.78820 | 23329 ft | 453 kts | 78° |
| 2026-05-04 16:08 | 60.02439 | 19.84966 | 23763 ft | 456 kts | 78° |
| 2026-05-04 16:08 | 60.04658 | 20.03670 | 25039 ft | 465 kts | 78° |
| 2026-05-04 16:09 | 60.06145 | 20.16351 | 25847 ft | 470 kts | 78° |
| 2026-05-04 16:09 | 60.07634 | 20.29191 | 26615 ft | 476 kts | 78° |
| 2026-05-04 16:10 | 60.09122 | 20.42201 | 27303 ft | 482 kts | 78° |
| 2026-05-04 16:11 | 60.11363 | 20.61964 | 28351 ft | 491 kts | 78° |
| 2026-05-04 16:11 | 60.12117 | 20.68647 | 28631 ft | 493 kts | 78° |
| 2026-05-04 16:12 | 60.14291 | 20.88056 | 28669 ft | 463 kts | 78° |
| 2026-05-04 16:12 | 60.16371 | 21.06968 | 28678 ft | 462 kts | 79° |
| 2026-05-04 16:13 | 60.19076 | 21.32110 | 28679 ft | 458 kts | 79° |
| 2026-05-04 16:14 | 60.21732 | 21.57123 | 28687 ft | 457 kts | 80° |
| 2026-05-04 16:16 | 60.24993 | 21.88343 | 28668 ft | 457 kts | 80° |
| 2026-05-04 16:16 | 60.26903 | 22.07137 | 28525 ft | 452 kts | 80° |
| 2026-05-04 16:17 | 60.28130 | 22.19373 | 27966 ft | 441 kts | 80° |
| 2026-05-04 16:18 | 60.29917 | 22.37375 | 27154 ft | 435 kts | 80° |
| 2026-05-04 16:18 | 60.30508 | 22.43344 | 26890 ft | 433 kts | 80° |
| 2026-05-04 16:19 | 60.32235 | 22.61099 | 25739 ft | 428 kts | 81° |
| 2026-05-04 16:19 | 60.33363 | 22.72839 | 24793 ft | 423 kts | 81° |
| 2026-05-04 16:20 | 60.35015 | 22.90213 | 23435 ft | 417 kts | 81° |
| 2026-05-04 16:20 | 60.36083 | 23.01609 | 22462 ft | 412 kts | 81° |
| 2026-05-04 16:21 | 60.37646 | 23.18525 | 21115 ft | 403 kts | 81° |
| 2026-05-04 16:22 | 60.38660 | 23.29621 | 20235 ft | 399 kts | 81° |
| 2026-05-04 16:22 | 60.40146 | 23.46052 | 18949 ft | 393 kts | 81° |
| 2026-05-04 16:23 | 60.41588 | 23.62219 | 17663 ft | 388 kts | 81° |
| 2026-05-04 16:24 | 60.43449 | 23.83436 | 16040 ft | 377 kts | 81° |
| 2026-05-04 16:25 | 60.44258 | 23.93865 | 15259 ft | 372 kts | 84° |
| 2026-05-04 16:26 | 60.45354 | 24.14227 | 14147 ft | 353 kts | 85° |
| 2026-05-04 16:26 | 60.46134 | 24.28892 | 13169 ft | 347 kts | 86° |
| 2026-05-04 16:27 | 60.46524 | 24.38613 | 12406 ft | 344 kts | 87° |
| 2026-05-04 16:28 | 60.47045 | 24.52996 | 11342 ft | 338 kts | 86° |
| 2026-05-04 16:28 | 60.46866 | 24.66957 | 10289 ft | 328 kts | 103° |
| 2026-05-04 16:29 | 60.45261 | 24.84935 | 8792 ft | 320 kts | 102° |
| 2026-05-04 16:30 | 60.45858 | 24.96551 | 7783 ft | 312 kts | 59° |
| 2026-05-04 16:31 | 60.48487 | 25.03064 | 7400 ft | 290 kts | 44° |
| 2026-05-04 16:31 | 60.52311 | 25.11634 | 6343 ft | 264 kts | 44° |
| 2026-05-04 16:32 | 60.55944 | 25.20101 | 5215 ft | 265 kts | 56° |
| 2026-05-04 16:33 | 60.56445 | 25.27186 | 4698 ft | 253 kts | 108° |
| 2026-05-04 16:33 | 60.54394 | 25.32356 | 4339 ft | 228 kts | 158° |
| 2026-05-04 16:34 | 60.51511 | 25.33195 | 3971 ft | 201 kts | 198° |
| 2026-05-04 16:34 | 60.50248 | 25.32220 | 3790 ft | 190 kts | 216° |
| 2026-05-04 16:35 | 60.46923 | 25.28013 | 3254 ft | 187 kts | 219° |
| 2026-05-04 16:35 | 60.44290 | 25.22811 | 2995 ft | 158 kts | 232° |
| 2026-05-04 16:36 | 60.43584 | 25.21248 | 2979 ft | 144 kts | 232° |
| 2026-05-04 16:36 | 60.42183 | 25.18073 | 2991 ft | 156 kts | 232° |
| 2026-05-04 16:37 | 60.40724 | 25.14803 | 2604 ft | 158 kts | 232° |
| 2026-05-04 16:37 | 60.39992 | 25.13159 | 2185 ft | 152 kts | 231° |
| 2026-05-04 16:37 | 60.38630 | 25.10357 | 1868 ft | 134 kts | 230° |
| 2026-05-04 16:38 | 60.37402 | 25.07569 | 1491 ft | 132 kts | 234° |
| 2026-05-04 16:39 | 60.35567 | 25.03491 | 879 ft | 130 kts | 232° |
| 2026-05-04 16:39 | 60.34361 | 25.00759 | 609 ft | 130 kts | 229° |
| 2026-05-04 16:40 | 60.33143 | 24.98082 | 240 ft | 129 kts | 227° |
| 2026-05-04 16:40 | 60.32123 | 24.95829 | 164 ft | 66 kts | 227° |
| 2026-05-04 16:41 | 60.31732 | 24.95223 | 163 ft | 23 kts | 197° |
| 2026-05-04 16:41 | 60.31637 | 24.95285 | 162 ft | 12 kts | 88° |
| 2026-05-04 16:42 | 60.31875 | 24.95839 | 161 ft | 25 kts | 47° |
| 2026-05-04 16:43 | 60.32116 | 24.96366 | 162 ft | 27 kts | 47° |
| 2026-05-04 16:43 | 60.32192 | 24.96802 | 161 ft | 15 kts | 148° |
| 2026-05-04 16:43 | 60.32098 | 24.96911 | 161 ft | 16 kts | 153° |
| 2026-05-04 16:44 | 60.31885 | 24.97074 | 161 ft | 2 kts | 234° |
| 2026-05-04 16:45 | 60.31871 | 24.97026 | 161 ft | 1 kts | 239° |
| 2026-05-04 16:46 | 60.31864 | 24.97000 | 161 ft | 0 kts | 243° |